Westhaven, California
Current Conditions -  °F | °C
As of 11:53 PM on Saturday 25 Oct 2014 (Local Time) from KACV Reporting Station
Overcast Overcast  
Wind Chill: 51°   Ceiling: 3600
Heat Index: 51°   Visibility: 10mi
Dew Point: 50°   Wind: 5mph
Humidity: 96%   Direction: 140°SE
Pressure: 30.13"   Gusts: NA
Location:  41.1412°N, 124.024°W
Report Text: KACV 260653Z AUTO 14004KT 10SM OVC036 11/10 A3013 RMK AO2 SLP209 T01060100
Loading
Personal Weather Stations






























Interactive Weather Map
Tropical Storm Tracking
New forecast layout! Learn more

10-Day Weather Forecast

Advertisements
Track Severe Weather on mobile